<?xml version="1.0" encoding="UTF-8" standalone="no" ?>
<gpx xmlns="http://www.topografix.com/GPX/1/1" xmlns:xsi="http://www.w3.org/2001/XMLSchema-instance" xsi:schemaLocation="http://www.topografix.com/GPX/1/1 http://www.topografix.com/GPX/1/1/gpx.xsd" version="1.1" creator="VisuGPX - https://www.visugpx.com">
  <metadata>
    <name>Course à pied dans l'après-midi</name>
  </metadata>
  <trk>
    <name><![CDATA[Course à pied dans l'après-midi_1]]></name>
    <trkseg>
      <trkpt lat="48.7344" lon="7.05622">
        <ele>258.9</ele>
        <time>2023-11-25T16:50:15Z</time>
      </trkpt>
      <trkpt lat="48.73438" lon="7.05652">
        <ele>259.9</ele>
        <time>2023-11-25T16:50:24Z</time>
      </trkpt>
      <trkpt lat="48.73438" lon="7.05681">
        <ele>261.4</ele>
        <time>2023-11-25T16:50:32Z</time>
      </trkpt>
      <trkpt lat="48.73441" lon="7.05711">
        <ele>262.8</ele>
        <time>2023-11-25T16:50:41Z</time>
      </trkpt>
      <trkpt lat="48.73443" lon="7.05738">
        <ele>264.2</ele>
        <time>2023-11-25T16:50:48Z</time>
      </trkpt>
      <trkpt lat="48.7344" lon="7.05767">
        <ele>265.7</ele>
        <time>2023-11-25T16:50:56Z</time>
      </trkpt>
      <trkpt lat="48.73441" lon="7.05797">
        <ele>267.5</ele>
        <time>2023-11-25T16:51:04Z</time>
      </trkpt>
      <trkpt lat="48.73437" lon="7.05826">
        <ele>269.2</ele>
        <time>2023-11-25T16:51:11Z</time>
      </trkpt>
      <trkpt lat="48.73434" lon="7.05853">
        <ele>270.2</ele>
        <time>2023-11-25T16:51:18Z</time>
      </trkpt>
      <trkpt lat="48.7343" lon="7.0588">
        <ele>271.5</ele>
        <time>2023-11-25T16:51:25Z</time>
      </trkpt>
      <trkpt lat="48.73421" lon="7.05906">
        <ele>272.7</ele>
        <time>2023-11-25T16:51:32Z</time>
      </trkpt>
      <trkpt lat="48.73411" lon="7.05928">
        <ele>273.2</ele>
        <time>2023-11-25T16:51:40Z</time>
      </trkpt>
      <trkpt lat="48.73405" lon="7.05939">
        <ele>273.7</ele>
        <time>2023-11-25T16:51:45Z</time>
      </trkpt>
      <trkpt lat="48.73387" lon="7.05932">
        <ele>273.5</ele>
        <time>2023-11-25T16:51:51Z</time>
      </trkpt>
      <trkpt lat="48.73369" lon="7.05924">
        <ele>273.2</ele>
        <time>2023-11-25T16:51:58Z</time>
      </trkpt>
      <trkpt lat="48.73349" lon="7.05919">
        <ele>273</ele>
        <time>2023-11-25T16:52:05Z</time>
      </trkpt>
      <trkpt lat="48.73331" lon="7.05913">
        <ele>272.8</ele>
        <time>2023-11-25T16:52:11Z</time>
      </trkpt>
      <trkpt lat="48.73313" lon="7.05908">
        <ele>272.3</ele>
        <time>2023-11-25T16:52:17Z</time>
      </trkpt>
      <trkpt lat="48.73294" lon="7.05903">
        <ele>271.7</ele>
        <time>2023-11-25T16:52:24Z</time>
      </trkpt>
      <trkpt lat="48.73274" lon="7.05897">
        <ele>271.3</ele>
        <time>2023-11-25T16:52:31Z</time>
      </trkpt>
      <trkpt lat="48.73256" lon="7.05885">
        <ele>270.7</ele>
        <time>2023-11-25T16:52:38Z</time>
      </trkpt>
      <trkpt lat="48.73238" lon="7.05871">
        <ele>269.6</ele>
        <time>2023-11-25T16:52:44Z</time>
      </trkpt>
      <trkpt lat="48.73223" lon="7.05852">
        <ele>268.9</ele>
        <time>2023-11-25T16:52:50Z</time>
      </trkpt>
      <trkpt lat="48.73212" lon="7.05827">
        <ele>268.2</ele>
        <time>2023-11-25T16:52:56Z</time>
      </trkpt>
      <trkpt lat="48.73199" lon="7.05803">
        <ele>267.6</ele>
        <time>2023-11-25T16:53:02Z</time>
      </trkpt>
      <trkpt lat="48.73188" lon="7.05777">
        <ele>267.2</ele>
        <time>2023-11-25T16:53:08Z</time>
      </trkpt>
      <trkpt lat="48.73179" lon="7.0575">
        <ele>266.9</ele>
        <time>2023-11-25T16:53:14Z</time>
      </trkpt>
      <trkpt lat="48.7317" lon="7.05725">
        <ele>266.8</ele>
        <time>2023-11-25T16:53:20Z</time>
      </trkpt>
      <trkpt lat="48.73161" lon="7.05701">
        <ele>266.8</ele>
        <time>2023-11-25T16:53:26Z</time>
      </trkpt>
      <trkpt lat="48.73152" lon="7.05678">
        <ele>266.8</ele>
        <time>2023-11-25T16:53:32Z</time>
      </trkpt>
      <trkpt lat="48.73143" lon="7.05653">
        <ele>266.6</ele>
        <time>2023-11-25T16:53:38Z</time>
      </trkpt>
      <trkpt lat="48.73133" lon="7.05629">
        <ele>266.4</ele>
        <time>2023-11-25T16:53:44Z</time>
      </trkpt>
      <trkpt lat="48.73123" lon="7.05603">
        <ele>266.3</ele>
        <time>2023-11-25T16:53:51Z</time>
      </trkpt>
      <trkpt lat="48.73114" lon="7.05574">
        <ele>266.3</ele>
        <time>2023-11-25T16:53:58Z</time>
      </trkpt>
      <trkpt lat="48.73106" lon="7.0555">
        <ele>266.4</ele>
        <time>2023-11-25T16:54:04Z</time>
      </trkpt>
      <trkpt lat="48.73093" lon="7.05531">
        <ele>266.5</ele>
        <time>2023-11-25T16:54:11Z</time>
      </trkpt>
      <trkpt lat="48.73077" lon="7.05545">
        <ele>268.4</ele>
        <time>2023-11-25T16:54:19Z</time>
      </trkpt>
      <trkpt lat="48.7306" lon="7.05563">
        <ele>270.6</ele>
        <time>2023-11-25T16:54:27Z</time>
      </trkpt>
      <trkpt lat="48.73045" lon="7.05578">
        <ele>272.4</ele>
        <time>2023-11-25T16:54:34Z</time>
      </trkpt>
      <trkpt lat="48.7303" lon="7.05592">
        <ele>270.3</ele>
        <time>2023-11-25T16:54:41Z</time>
      </trkpt>
      <trkpt lat="48.73015" lon="7.05612">
        <ele>271.7</ele>
        <time>2023-11-25T16:54:48Z</time>
      </trkpt>
      <trkpt lat="48.73001" lon="7.05631">
        <ele>273.8</ele>
        <time>2023-11-25T16:54:55Z</time>
      </trkpt>
      <trkpt lat="48.72983" lon="7.05645">
        <ele>276.8</ele>
        <time>2023-11-25T16:55:05Z</time>
      </trkpt>
      <trkpt lat="48.72971" lon="7.05646">
        <ele>278.6</ele>
        <time>2023-11-25T16:55:10Z</time>
      </trkpt>
      <trkpt lat="48.72959" lon="7.05624">
        <ele>278.8</ele>
        <time>2023-11-25T16:55:16Z</time>
      </trkpt>
      <trkpt lat="48.72948" lon="7.056">
        <ele>279</ele>
        <time>2023-11-25T16:55:22Z</time>
      </trkpt>
      <trkpt lat="48.72937" lon="7.05574">
        <ele>279.4</ele>
        <time>2023-11-25T16:55:29Z</time>
      </trkpt>
      <trkpt lat="48.72925" lon="7.05551">
        <ele>279.8</ele>
        <time>2023-11-25T16:55:36Z</time>
      </trkpt>
      <trkpt lat="48.72913" lon="7.05528">
        <ele>280.5</ele>
        <time>2023-11-25T16:55:43Z</time>
      </trkpt>
      <trkpt lat="48.72901" lon="7.05507">
        <ele>281.5</ele>
        <time>2023-11-25T16:55:51Z</time>
      </trkpt>
      <trkpt lat="48.72886" lon="7.05493">
        <ele>282.5</ele>
        <time>2023-11-25T16:55:58Z</time>
      </trkpt>
      <trkpt lat="48.72873" lon="7.05473">
        <ele>283.5</ele>
        <time>2023-11-25T16:56:05Z</time>
      </trkpt>
      <trkpt lat="48.72859" lon="7.05455">
        <ele>284.3</ele>
        <time>2023-11-25T16:56:12Z</time>
      </trkpt>
      <trkpt lat="48.72844" lon="7.05436">
        <ele>285</ele>
        <time>2023-11-25T16:56:18Z</time>
      </trkpt>
      <trkpt lat="48.72829" lon="7.05417">
        <ele>285.5</ele>
        <time>2023-11-25T16:56:24Z</time>
      </trkpt>
      <trkpt lat="48.72814" lon="7.054">
        <ele>285.9</ele>
        <time>2023-11-25T16:56:30Z</time>
      </trkpt>
      <trkpt lat="48.72799" lon="7.05383">
        <ele>286.1</ele>
        <time>2023-11-25T16:56:36Z</time>
      </trkpt>
      <trkpt lat="48.72785" lon="7.05364">
        <ele>286.2</ele>
        <time>2023-11-25T16:56:42Z</time>
      </trkpt>
      <trkpt lat="48.7277" lon="7.05346">
        <ele>286.2</ele>
        <time>2023-11-25T16:56:48Z</time>
      </trkpt>
      <trkpt lat="48.72756" lon="7.05328">
        <ele>286.4</ele>
        <time>2023-11-25T16:56:54Z</time>
      </trkpt>
      <trkpt lat="48.72742" lon="7.05306">
        <ele>286.5</ele>
        <time>2023-11-25T16:57:00Z</time>
      </trkpt>
      <trkpt lat="48.72727" lon="7.05288">
        <ele>286.3</ele>
        <time>2023-11-25T16:57:06Z</time>
      </trkpt>
      <trkpt lat="48.72713" lon="7.05268">
        <ele>285.8</ele>
        <time>2023-11-25T16:57:12Z</time>
      </trkpt>
      <trkpt lat="48.72697" lon="7.05249">
        <ele>285.1</ele>
        <time>2023-11-25T16:57:18Z</time>
      </trkpt>
      <trkpt lat="48.72682" lon="7.05228">
        <ele>284.2</ele>
        <time>2023-11-25T16:57:24Z</time>
      </trkpt>
      <trkpt lat="48.72667" lon="7.05211">
        <ele>283.3</ele>
        <time>2023-11-25T16:57:30Z</time>
      </trkpt>
      <trkpt lat="48.7265" lon="7.05192">
        <ele>282.2</ele>
        <time>2023-11-25T16:57:36Z</time>
      </trkpt>
      <trkpt lat="48.72635" lon="7.05173">
        <ele>281.1</ele>
        <time>2023-11-25T16:57:42Z</time>
      </trkpt>
      <trkpt lat="48.7262" lon="7.05152">
        <ele>280.2</ele>
        <time>2023-11-25T16:57:48Z</time>
      </trkpt>
      <trkpt lat="48.72605" lon="7.05133">
        <ele>279.2</ele>
        <time>2023-11-25T16:57:54Z</time>
      </trkpt>
      <trkpt lat="48.7259" lon="7.05114">
        <ele>278.5</ele>
        <time>2023-11-25T16:58:00Z</time>
      </trkpt>
      <trkpt lat="48.72588" lon="7.05111">
        <ele>278.4</ele>
        <time>2023-11-25T16:58:01Z</time>
      </trkpt>
      <trkpt lat="48.72584" lon="7.05106">
        <ele>278.2</ele>
        <time>2023-11-25T16:58:04Z</time>
      </trkpt>
      <trkpt lat="48.72569" lon="7.05084">
        <ele>277.6</ele>
        <time>2023-11-25T16:58:12Z</time>
      </trkpt>
      <trkpt lat="48.72557" lon="7.05063">
        <ele>278.1</ele>
        <time>2023-11-25T16:58:17Z</time>
      </trkpt>
      <trkpt lat="48.72542" lon="7.05044">
        <ele>278.8</ele>
        <time>2023-11-25T16:58:23Z</time>
      </trkpt>
      <trkpt lat="48.72526" lon="7.05024">
        <ele>280.3</ele>
        <time>2023-11-25T16:58:30Z</time>
      </trkpt>
      <trkpt lat="48.72511" lon="7.05005">
        <ele>282.3</ele>
        <time>2023-11-25T16:58:37Z</time>
      </trkpt>
      <trkpt lat="48.72499" lon="7.04984">
        <ele>284.1</ele>
        <time>2023-11-25T16:58:44Z</time>
      </trkpt>
      <trkpt lat="48.72489" lon="7.04961">
        <ele>285.2</ele>
        <time>2023-11-25T16:58:50Z</time>
      </trkpt>
      <trkpt lat="48.72482" lon="7.04932">
        <ele>285.3</ele>
        <time>2023-11-25T16:58:56Z</time>
      </trkpt>
      <trkpt lat="48.72478" lon="7.04904">
        <ele>284.3</ele>
        <time>2023-11-25T16:59:02Z</time>
      </trkpt>
      <trkpt lat="48.7248" lon="7.04875">
        <ele>282.9</ele>
        <time>2023-11-25T16:59:08Z</time>
      </trkpt>
      <trkpt lat="48.72485" lon="7.04849">
        <ele>281.6</ele>
        <time>2023-11-25T16:59:13Z</time>
      </trkpt>
      <trkpt lat="48.72491" lon="7.04818">
        <ele>279.8</ele>
        <time>2023-11-25T16:59:19Z</time>
      </trkpt>
      <trkpt lat="48.725" lon="7.04794">
        <ele>278.3</ele>
        <time>2023-11-25T16:59:24Z</time>
      </trkpt>
      <trkpt lat="48.72519" lon="7.0479">
        <ele>276.3</ele>
        <time>2023-11-25T16:59:29Z</time>
      </trkpt>
      <trkpt lat="48.72539" lon="7.0479">
        <ele>274</ele>
        <time>2023-11-25T16:59:34Z</time>
      </trkpt>
      <trkpt lat="48.7256" lon="7.04787">
        <ele>271.8</ele>
        <time>2023-11-25T16:59:40Z</time>
      </trkpt>
      <trkpt lat="48.72579" lon="7.04786">
        <ele>269.6</ele>
        <time>2023-11-25T16:59:46Z</time>
      </trkpt>
      <trkpt lat="48.72588" lon="7.04776">
        <ele>268.3</ele>
        <time>2023-11-25T16:59:50Z</time>
      </trkpt>
      <trkpt lat="48.72577" lon="7.04751">
        <ele>269.4</ele>
        <time>2023-11-25T16:59:56Z</time>
      </trkpt>
      <trkpt lat="48.72564" lon="7.04732">
        <ele>270.3</ele>
        <time>2023-11-25T17:00:02Z</time>
      </trkpt>
      <trkpt lat="48.7255" lon="7.04714">
        <ele>271.2</ele>
        <time>2023-11-25T17:00:08Z</time>
      </trkpt>
      <trkpt lat="48.72535" lon="7.04695">
        <ele>272.1</ele>
        <time>2023-11-25T17:00:15Z</time>
      </trkpt>
      <trkpt lat="48.72521" lon="7.04671">
        <ele>273.1</ele>
        <time>2023-11-25T17:00:22Z</time>
      </trkpt>
      <trkpt lat="48.72507" lon="7.04651">
        <ele>273.7</ele>
        <time>2023-11-25T17:00:29Z</time>
      </trkpt>
      <trkpt lat="48.72496" lon="7.04624">
        <ele>274.1</ele>
        <time>2023-11-25T17:00:36Z</time>
      </trkpt>
      <trkpt lat="48.72489" lon="7.04598">
        <ele>273.9</ele>
        <time>2023-11-25T17:00:42Z</time>
      </trkpt>
      <trkpt lat="48.72479" lon="7.04573">
        <ele>273.7</ele>
        <time>2023-11-25T17:00:48Z</time>
      </trkpt>
      <trkpt lat="48.72469" lon="7.0455">
        <ele>273.5</ele>
        <time>2023-11-25T17:00:54Z</time>
      </trkpt>
      <trkpt lat="48.72453" lon="7.04534">
        <ele>273.4</ele>
        <time>2023-11-25T17:01:00Z</time>
      </trkpt>
      <trkpt lat="48.72438" lon="7.04515">
        <ele>273.4</ele>
        <time>2023-11-25T17:01:07Z</time>
      </trkpt>
      <trkpt lat="48.72421" lon="7.04498">
        <ele>273.4</ele>
        <time>2023-11-25T17:01:14Z</time>
      </trkpt>
      <trkpt lat="48.72407" lon="7.04479">
        <ele>273.2</ele>
        <time>2023-11-25T17:01:20Z</time>
      </trkpt>
      <trkpt lat="48.72395" lon="7.04454">
        <ele>272.6</ele>
        <time>2023-11-25T17:01:27Z</time>
      </trkpt>
      <trkpt lat="48.72384" lon="7.04428">
        <ele>272</ele>
        <time>2023-11-25T17:01:34Z</time>
      </trkpt>
      <trkpt lat="48.72372" lon="7.04405">
        <ele>271.6</ele>
        <time>2023-11-25T17:01:40Z</time>
      </trkpt>
      <trkpt lat="48.7236" lon="7.04384">
        <ele>271.1</ele>
        <time>2023-11-25T17:01:46Z</time>
      </trkpt>
      <trkpt lat="48.72347" lon="7.04364">
        <ele>270.8</ele>
        <time>2023-11-25T17:01:52Z</time>
      </trkpt>
      <trkpt lat="48.72334" lon="7.04341">
        <ele>270.4</ele>
        <time>2023-11-25T17:01:59Z</time>
      </trkpt>
      <trkpt lat="48.72321" lon="7.04321">
        <ele>270.1</ele>
        <time>2023-11-25T17:02:05Z</time>
      </trkpt>
      <trkpt lat="48.72307" lon="7.04302">
        <ele>269.8</ele>
        <time>2023-11-25T17:02:11Z</time>
      </trkpt>
      <trkpt lat="48.72295" lon="7.04281">
        <ele>269.5</ele>
        <time>2023-11-25T17:02:17Z</time>
      </trkpt>
      <trkpt lat="48.72282" lon="7.04261">
        <ele>269.2</ele>
        <time>2023-11-25T17:02:23Z</time>
      </trkpt>
      <trkpt lat="48.72266" lon="7.04242">
        <ele>269.1</ele>
        <time>2023-11-25T17:02:29Z</time>
      </trkpt>
      <trkpt lat="48.72252" lon="7.04225">
        <ele>268.9</ele>
        <time>2023-11-25T17:02:35Z</time>
      </trkpt>
      <trkpt lat="48.72236" lon="7.04209">
        <ele>268.8</ele>
        <time>2023-11-25T17:02:41Z</time>
      </trkpt>
      <trkpt lat="48.72222" lon="7.04189">
        <ele>268.5</ele>
        <time>2023-11-25T17:02:47Z</time>
      </trkpt>
      <trkpt lat="48.72208" lon="7.04169">
        <ele>267.8</ele>
        <time>2023-11-25T17:02:53Z</time>
      </trkpt>
      <trkpt lat="48.72192" lon="7.04151">
        <ele>267</ele>
        <time>2023-11-25T17:03:00Z</time>
      </trkpt>
      <trkpt lat="48.72181" lon="7.04145">
        <ele>266.6</ele>
        <time>2023-11-25T17:03:05Z</time>
      </trkpt>
      <trkpt lat="48.72161" lon="7.04154">
        <ele>265.8</ele>
        <time>2023-11-25T17:03:13Z</time>
      </trkpt>
      <trkpt lat="48.72144" lon="7.04148">
        <ele>265.4</ele>
        <time>2023-11-25T17:03:19Z</time>
      </trkpt>
      <trkpt lat="48.72133" lon="7.04122">
        <ele>265.1</ele>
        <time>2023-11-25T17:03:25Z</time>
      </trkpt>
      <trkpt lat="48.72127" lon="7.04095">
        <ele>264.9</ele>
        <time>2023-11-25T17:03:31Z</time>
      </trkpt>
      <trkpt lat="48.72131" lon="7.04066">
        <ele>264.7</ele>
        <time>2023-11-25T17:03:37Z</time>
      </trkpt>
      <trkpt lat="48.72128" lon="7.04037">
        <ele>264.2</ele>
        <time>2023-11-25T17:03:44Z</time>
      </trkpt>
      <trkpt lat="48.72113" lon="7.04016">
        <ele>263.5</ele>
        <time>2023-11-25T17:03:50Z</time>
      </trkpt>
      <trkpt lat="48.72103" lon="7.03991">
        <ele>262.9</ele>
        <time>2023-11-25T17:03:56Z</time>
      </trkpt>
      <trkpt lat="48.72095" lon="7.03965">
        <ele>262.4</ele>
        <time>2023-11-25T17:04:02Z</time>
      </trkpt>
      <trkpt lat="48.72087" lon="7.03938">
        <ele>261.9</ele>
        <time>2023-11-25T17:04:08Z</time>
      </trkpt>
      <trkpt lat="48.72089" lon="7.03929">
        <ele>261.4</ele>
        <time>2023-11-25T17:04:09Z</time>
      </trkpt>
      <trkpt lat="48.72107" lon="7.03912">
        <ele>260.6</ele>
        <time>2023-11-25T17:04:16Z</time>
      </trkpt>
      <trkpt lat="48.72124" lon="7.03897">
        <ele>259.9</ele>
        <time>2023-11-25T17:04:22Z</time>
      </trkpt>
      <trkpt lat="48.72141" lon="7.0388">
        <ele>259.2</ele>
        <time>2023-11-25T17:04:28Z</time>
      </trkpt>
      <trkpt lat="48.72157" lon="7.03863">
        <ele>258.5</ele>
        <time>2023-11-25T17:04:34Z</time>
      </trkpt>
      <trkpt lat="48.72174" lon="7.03845">
        <ele>257.7</ele>
        <time>2023-11-25T17:04:41Z</time>
      </trkpt>
      <trkpt lat="48.72188" lon="7.03827">
        <ele>257</ele>
        <time>2023-11-25T17:04:47Z</time>
      </trkpt>
      <trkpt lat="48.72205" lon="7.03811">
        <ele>256.3</ele>
        <time>2023-11-25T17:04:53Z</time>
      </trkpt>
      <trkpt lat="48.72222" lon="7.03794">
        <ele>255.5</ele>
        <time>2023-11-25T17:04:59Z</time>
      </trkpt>
      <trkpt lat="48.72238" lon="7.03779">
        <ele>254.8</ele>
        <time>2023-11-25T17:05:05Z</time>
      </trkpt>
      <trkpt lat="48.72254" lon="7.0376">
        <ele>254.2</ele>
        <time>2023-11-25T17:05:11Z</time>
      </trkpt>
      <trkpt lat="48.72269" lon="7.03746">
        <ele>253.8</ele>
        <time>2023-11-25T17:05:17Z</time>
      </trkpt>
      <trkpt lat="48.72286" lon="7.03752">
        <ele>253.8</ele>
        <time>2023-11-25T17:05:24Z</time>
      </trkpt>
      <trkpt lat="48.72298" lon="7.03778">
        <ele>253.6</ele>
        <time>2023-11-25T17:05:30Z</time>
      </trkpt>
      <trkpt lat="48.72311" lon="7.03803">
        <ele>253.7</ele>
        <time>2023-11-25T17:05:36Z</time>
      </trkpt>
      <trkpt lat="48.7232" lon="7.03823">
        <ele>253.8</ele>
        <time>2023-11-25T17:05:42Z</time>
      </trkpt>
      <trkpt lat="48.72325" lon="7.03822">
        <ele>253.4</ele>
        <time>2023-11-25T17:05:44Z</time>
      </trkpt>
      <trkpt lat="48.72343" lon="7.03805">
        <ele>253.1</ele>
        <time>2023-11-25T17:05:51Z</time>
      </trkpt>
      <trkpt lat="48.72359" lon="7.03793">
        <ele>252.6</ele>
        <time>2023-11-25T17:05:57Z</time>
      </trkpt>
      <trkpt lat="48.72376" lon="7.0378">
        <ele>252.1</ele>
        <time>2023-11-25T17:06:03Z</time>
      </trkpt>
      <trkpt lat="48.72393" lon="7.03766">
        <ele>251.6</ele>
        <time>2023-11-25T17:06:09Z</time>
      </trkpt>
      <trkpt lat="48.7241" lon="7.03755">
        <ele>251.1</ele>
        <time>2023-11-25T17:06:15Z</time>
      </trkpt>
      <trkpt lat="48.72426" lon="7.03739">
        <ele>250.7</ele>
        <time>2023-11-25T17:06:21Z</time>
      </trkpt>
      <trkpt lat="48.72442" lon="7.03723">
        <ele>250.4</ele>
        <time>2023-11-25T17:06:27Z</time>
      </trkpt>
      <trkpt lat="48.7246" lon="7.03707">
        <ele>250.1</ele>
        <time>2023-11-25T17:06:34Z</time>
      </trkpt>
      <trkpt lat="48.72476" lon="7.03692">
        <ele>249.7</ele>
        <time>2023-11-25T17:06:40Z</time>
      </trkpt>
      <trkpt lat="48.72494" lon="7.03677">
        <ele>249.4</ele>
        <time>2023-11-25T17:06:47Z</time>
      </trkpt>
      <trkpt lat="48.72512" lon="7.03663">
        <ele>249</ele>
        <time>2023-11-25T17:06:54Z</time>
      </trkpt>
      <trkpt lat="48.72529" lon="7.03648">
        <ele>248.6</ele>
        <time>2023-11-25T17:07:00Z</time>
      </trkpt>
      <trkpt lat="48.72545" lon="7.03633">
        <ele>248.2</ele>
        <time>2023-11-25T17:07:06Z</time>
      </trkpt>
      <trkpt lat="48.72546" lon="7.03626">
        <ele>248.1</ele>
        <time>2023-11-25T17:07:08Z</time>
      </trkpt>
      <trkpt lat="48.72543" lon="7.03596">
        <ele>247.9</ele>
        <time>2023-11-25T17:07:14Z</time>
      </trkpt>
      <trkpt lat="48.72552" lon="7.0357">
        <ele>247.8</ele>
        <time>2023-11-25T17:07:20Z</time>
      </trkpt>
      <trkpt lat="48.72547" lon="7.03542">
        <ele>247.7</ele>
        <time>2023-11-25T17:07:27Z</time>
      </trkpt>
      <trkpt lat="48.7254" lon="7.03515">
        <ele>247.7</ele>
        <time>2023-11-25T17:07:33Z</time>
      </trkpt>
      <trkpt lat="48.72534" lon="7.03499">
        <ele>247.7</ele>
        <time>2023-11-25T17:08:05Z</time>
      </trkpt>
      <trkpt lat="48.72534" lon="7.03494">
        <ele>247.7</ele>
        <time>2023-11-25T17:08:06Z</time>
      </trkpt>
      <trkpt lat="48.72525" lon="7.03467">
        <ele>247.8</ele>
        <time>2023-11-25T17:08:14Z</time>
      </trkpt>
      <trkpt lat="48.72512" lon="7.03445">
        <ele>247.9</ele>
        <time>2023-11-25T17:08:20Z</time>
      </trkpt>
      <trkpt lat="48.72501" lon="7.03419">
        <ele>248</ele>
        <time>2023-11-25T17:08:26Z</time>
      </trkpt>
      <trkpt lat="48.72494" lon="7.03391">
        <ele>248.1</ele>
        <time>2023-11-25T17:08:33Z</time>
      </trkpt>
      <trkpt lat="48.72488" lon="7.03361">
        <ele>248.2</ele>
        <time>2023-11-25T17:08:39Z</time>
      </trkpt>
      <trkpt lat="48.7248" lon="7.03336">
        <ele>248.2</ele>
        <time>2023-11-25T17:08:44Z</time>
      </trkpt>
      <trkpt lat="48.72465" lon="7.03311">
        <ele>248.2</ele>
        <time>2023-11-25T17:08:49Z</time>
      </trkpt>
      <trkpt lat="48.72458" lon="7.0328">
        <ele>248.3</ele>
        <time>2023-11-25T17:08:54Z</time>
      </trkpt>
      <trkpt lat="48.72462" lon="7.03252">
        <ele>248.3</ele>
        <time>2023-11-25T17:08:58Z</time>
      </trkpt>
      <trkpt lat="48.72463" lon="7.03238">
        <ele>248.3</ele>
        <time>2023-11-25T17:09:00Z</time>
      </trkpt>
      <trkpt lat="48.72462" lon="7.0321">
        <ele>248.2</ele>
        <time>2023-11-25T17:09:04Z</time>
      </trkpt>
      <trkpt lat="48.7246" lon="7.03196">
        <ele>248.1</ele>
        <time>2023-11-25T17:09:06Z</time>
      </trkpt>
      <trkpt lat="48.7246" lon="7.03182">
        <ele>248</ele>
        <time>2023-11-25T17:09:08Z</time>
      </trkpt>
      <trkpt lat="48.72464" lon="7.03155">
        <ele>247.9</ele>
        <time>2023-11-25T17:09:12Z</time>
      </trkpt>
      <trkpt lat="48.72465" lon="7.03149">
        <ele>247.9</ele>
        <time>2023-11-25T17:09:13Z</time>
      </trkpt>
      <trkpt lat="48.72462" lon="7.03122">
        <ele>247.7</ele>
        <time>2023-11-25T17:09:17Z</time>
      </trkpt>
      <trkpt lat="48.72456" lon="7.03095">
        <ele>247.8</ele>
        <time>2023-11-25T17:09:21Z</time>
      </trkpt>
      <trkpt lat="48.7245" lon="7.03069">
        <ele>247.9</ele>
        <time>2023-11-25T17:09:25Z</time>
      </trkpt>
      <trkpt lat="48.72447" lon="7.03041">
        <ele>248.1</ele>
        <time>2023-11-25T17:09:30Z</time>
      </trkpt>
      <trkpt lat="48.72449" lon="7.0302">
        <ele>248.3</ele>
        <time>2023-11-25T17:09:36Z</time>
      </trkpt>
      <trkpt lat="48.72467" lon="7.03008">
        <ele>248.6</ele>
        <time>2023-11-25T17:09:44Z</time>
      </trkpt>
      <trkpt lat="48.72483" lon="7.02995">
        <ele>248.9</ele>
        <time>2023-11-25T17:09:51Z</time>
      </trkpt>
      <trkpt lat="48.72501" lon="7.02986">
        <ele>248.9</ele>
        <time>2023-11-25T17:09:58Z</time>
      </trkpt>
      <trkpt lat="48.7252" lon="7.02979">
        <ele>248.8</ele>
        <time>2023-11-25T17:10:06Z</time>
      </trkpt>
      <trkpt lat="48.72538" lon="7.02967">
        <ele>248.6</ele>
        <time>2023-11-25T17:10:12Z</time>
      </trkpt>
      <trkpt lat="48.7256" lon="7.02969">
        <ele>248.5</ele>
        <time>2023-11-25T17:10:18Z</time>
      </trkpt>
      <trkpt lat="48.72567" lon="7.0297">
        <ele>248.5</ele>
        <time>2023-11-25T17:10:20Z</time>
      </trkpt>
      <trkpt lat="48.72585" lon="7.0296">
        <ele>248.2</ele>
        <time>2023-11-25T17:10:25Z</time>
      </trkpt>
      <trkpt lat="48.72601" lon="7.02947">
        <ele>248.1</ele>
        <time>2023-11-25T17:10:29Z</time>
      </trkpt>
      <trkpt lat="48.72617" lon="7.02932">
        <ele>248.3</ele>
        <time>2023-11-25T17:10:33Z</time>
      </trkpt>
      <trkpt lat="48.72634" lon="7.02917">
        <ele>248.5</ele>
        <time>2023-11-25T17:10:37Z</time>
      </trkpt>
      <trkpt lat="48.72651" lon="7.02902">
        <ele>248.7</ele>
        <time>2023-11-25T17:10:41Z</time>
      </trkpt>
      <trkpt lat="48.72656" lon="7.02901">
        <ele>248.7</ele>
        <time>2023-11-25T17:10:42Z</time>
      </trkpt>
      <trkpt lat="48.72665" lon="7.02904">
        <ele>248.6</ele>
        <time>2023-11-25T17:10:44Z</time>
      </trkpt>
      <trkpt lat="48.72672" lon="7.02913">
        <ele>248.5</ele>
        <time>2023-11-25T17:10:46Z</time>
      </trkpt>
      <trkpt lat="48.72678" lon="7.02925">
        <ele>248.4</ele>
        <time>2023-11-25T17:10:48Z</time>
      </trkpt>
      <trkpt lat="48.72688" lon="7.02956">
        <ele>248.2</ele>
        <time>2023-11-25T17:10:53Z</time>
      </trkpt>
      <trkpt lat="48.72698" lon="7.02983">
        <ele>248.1</ele>
        <time>2023-11-25T17:10:57Z</time>
      </trkpt>
      <trkpt lat="48.72707" lon="7.0301">
        <ele>248.1</ele>
        <time>2023-11-25T17:11:01Z</time>
      </trkpt>
      <trkpt lat="48.72712" lon="7.03031">
        <ele>248.1</ele>
        <time>2023-11-25T17:11:04Z</time>
      </trkpt>
      <trkpt lat="48.72713" lon="7.03038">
        <ele>248.1</ele>
        <time>2023-11-25T17:11:05Z</time>
      </trkpt>
      <trkpt lat="48.72719" lon="7.03064">
        <ele>248.1</ele>
        <time>2023-11-25T17:11:09Z</time>
      </trkpt>
      <trkpt lat="48.72726" lon="7.03093">
        <ele>248.2</ele>
        <time>2023-11-25T17:11:16Z</time>
      </trkpt>
      <trkpt lat="48.72734" lon="7.0312">
        <ele>248.2</ele>
        <time>2023-11-25T17:11:24Z</time>
      </trkpt>
      <trkpt lat="48.72738" lon="7.03148">
        <ele>248.3</ele>
        <time>2023-11-25T17:11:31Z</time>
      </trkpt>
      <trkpt lat="48.72733" lon="7.03175">
        <ele>248.3</ele>
        <time>2023-11-25T17:11:38Z</time>
      </trkpt>
      <trkpt lat="48.72718" lon="7.03192">
        <ele>248.3</ele>
        <time>2023-11-25T17:11:45Z</time>
      </trkpt>
      <trkpt lat="48.72702" lon="7.03205">
        <ele>248.2</ele>
        <time>2023-11-25T17:11:52Z</time>
      </trkpt>
      <trkpt lat="48.72685" lon="7.03221">
        <ele>248.1</ele>
        <time>2023-11-25T17:12:00Z</time>
      </trkpt>
      <trkpt lat="48.72673" lon="7.03241">
        <ele>248</ele>
        <time>2023-11-25T17:12:07Z</time>
      </trkpt>
      <trkpt lat="48.72675" lon="7.03269">
        <ele>248</ele>
        <time>2023-11-25T17:12:13Z</time>
      </trkpt>
      <trkpt lat="48.72681" lon="7.03298">
        <ele>248.1</ele>
        <time>2023-11-25T17:12:19Z</time>
      </trkpt>
      <trkpt lat="48.72687" lon="7.03325">
        <ele>248.1</ele>
        <time>2023-11-25T17:12:25Z</time>
      </trkpt>
      <trkpt lat="48.72692" lon="7.03343">
        <ele>248.1</ele>
        <time>2023-11-25T17:12:29Z</time>
      </trkpt>
      <trkpt lat="48.72699" lon="7.03372">
        <ele>248.1</ele>
        <time>2023-11-25T17:12:34Z</time>
      </trkpt>
      <trkpt lat="48.72706" lon="7.03403">
        <ele>248.1</ele>
        <time>2023-11-25T17:12:39Z</time>
      </trkpt>
      <trkpt lat="48.72714" lon="7.03435">
        <ele>248</ele>
        <time>2023-11-25T17:12:44Z</time>
      </trkpt>
      <trkpt lat="48.72719" lon="7.03456">
        <ele>248</ele>
        <time>2023-11-25T17:12:47Z</time>
      </trkpt>
      <trkpt lat="48.72731" lon="7.0348">
        <ele>248</ele>
        <time>2023-11-25T17:12:51Z</time>
      </trkpt>
      <trkpt lat="48.72734" lon="7.03485">
        <ele>248</ele>
        <time>2023-11-25T17:12:52Z</time>
      </trkpt>
      <trkpt lat="48.7275" lon="7.03504">
        <ele>248</ele>
        <time>2023-11-25T17:12:56Z</time>
      </trkpt>
      <trkpt lat="48.72765" lon="7.03521">
        <ele>247.9</ele>
        <time>2023-11-25T17:13:00Z</time>
      </trkpt>
      <trkpt lat="48.7278" lon="7.03541">
        <ele>247.9</ele>
        <time>2023-11-25T17:13:04Z</time>
      </trkpt>
      <trkpt lat="48.72784" lon="7.03554">
        <ele>247.9</ele>
        <time>2023-11-25T17:13:06Z</time>
      </trkpt>
      <trkpt lat="48.72793" lon="7.03581">
        <ele>248</ele>
        <time>2023-11-25T17:13:10Z</time>
      </trkpt>
      <trkpt lat="48.728" lon="7.03608">
        <ele>248.1</ele>
        <time>2023-11-25T17:13:14Z</time>
      </trkpt>
      <trkpt lat="48.72807" lon="7.03634">
        <ele>248.2</ele>
        <time>2023-11-25T17:13:18Z</time>
      </trkpt>
      <trkpt lat="48.72812" lon="7.03654">
        <ele>248.2</ele>
        <time>2023-11-25T17:13:21Z</time>
      </trkpt>
      <trkpt lat="48.72816" lon="7.03667">
        <ele>248.3</ele>
        <time>2023-11-25T17:13:23Z</time>
      </trkpt>
      <trkpt lat="48.72824" lon="7.03694">
        <ele>248.3</ele>
        <time>2023-11-25T17:13:28Z</time>
      </trkpt>
      <trkpt lat="48.72826" lon="7.03699">
        <ele>248.3</ele>
        <time>2023-11-25T17:13:29Z</time>
      </trkpt>
      <trkpt lat="48.72826" lon="7.03728">
        <ele>248.1</ele>
        <time>2023-11-25T17:13:37Z</time>
      </trkpt>
      <trkpt lat="48.72817" lon="7.03753">
        <ele>248</ele>
        <time>2023-11-25T17:13:45Z</time>
      </trkpt>
      <trkpt lat="48.72802" lon="7.03775">
        <ele>247.6</ele>
        <time>2023-11-25T17:13:52Z</time>
      </trkpt>
      <trkpt lat="48.72795" lon="7.03801">
        <ele>247.4</ele>
        <time>2023-11-25T17:13:59Z</time>
      </trkpt>
      <trkpt lat="48.72795" lon="7.03831">
        <ele>247.3</ele>
        <time>2023-11-25T17:14:07Z</time>
      </trkpt>
      <trkpt lat="48.72798" lon="7.0386">
        <ele>247.2</ele>
        <time>2023-11-25T17:14:15Z</time>
      </trkpt>
      <trkpt lat="48.7281" lon="7.03885">
        <ele>247.1</ele>
        <time>2023-11-25T17:14:23Z</time>
      </trkpt>
      <trkpt lat="48.72824" lon="7.03909">
        <ele>247.1</ele>
        <time>2023-11-25T17:14:30Z</time>
      </trkpt>
      <trkpt lat="48.72837" lon="7.03929">
        <ele>247.2</ele>
        <time>2023-11-25T17:14:36Z</time>
      </trkpt>
      <trkpt lat="48.72843" lon="7.03958">
        <ele>247.3</ele>
        <time>2023-11-25T17:14:42Z</time>
      </trkpt>
      <trkpt lat="48.7284" lon="7.03985">
        <ele>247.6</ele>
        <time>2023-11-25T17:14:48Z</time>
      </trkpt>
      <trkpt lat="48.72841" lon="7.03997">
        <ele>247.6</ele>
        <time>2023-11-25T17:14:51Z</time>
      </trkpt>
      <trkpt lat="48.72858" lon="7.04016">
        <ele>247.6</ele>
        <time>2023-11-25T17:14:57Z</time>
      </trkpt>
      <trkpt lat="48.72871" lon="7.04037">
        <ele>247.4</ele>
        <time>2023-11-25T17:15:01Z</time>
      </trkpt>
      <trkpt lat="48.72874" lon="7.04051">
        <ele>247.3</ele>
        <time>2023-11-25T17:15:03Z</time>
      </trkpt>
      <trkpt lat="48.72874" lon="7.04067">
        <ele>247.2</ele>
        <time>2023-11-25T17:15:05Z</time>
      </trkpt>
      <trkpt lat="48.72871" lon="7.04082">
        <ele>247.1</ele>
        <time>2023-11-25T17:15:07Z</time>
      </trkpt>
      <trkpt lat="48.72864" lon="7.04092">
        <ele>247.1</ele>
        <time>2023-11-25T17:15:09Z</time>
      </trkpt>
      <trkpt lat="48.72856" lon="7.04099">
        <ele>247.1</ele>
        <time>2023-11-25T17:15:11Z</time>
      </trkpt>
      <trkpt lat="48.72843" lon="7.0411">
        <ele>247.1</ele>
        <time>2023-11-25T17:15:14Z</time>
      </trkpt>
      <trkpt lat="48.72838" lon="7.04122">
        <ele>247.4</ele>
        <time>2023-11-25T17:15:16Z</time>
      </trkpt>
      <trkpt lat="48.72833" lon="7.04152">
        <ele>248.5</ele>
        <time>2023-11-25T17:15:20Z</time>
      </trkpt>
      <trkpt lat="48.72832" lon="7.04158">
        <ele>248.8</ele>
        <time>2023-11-25T17:15:21Z</time>
      </trkpt>
      <trkpt lat="48.72832" lon="7.04185">
        <ele>250</ele>
        <time>2023-11-25T17:15:25Z</time>
      </trkpt>
      <trkpt lat="48.72836" lon="7.04196">
        <ele>250.2</ele>
        <time>2023-11-25T17:15:27Z</time>
      </trkpt>
      <trkpt lat="48.72849" lon="7.04219">
        <ele>250.3</ele>
        <time>2023-11-25T17:15:31Z</time>
      </trkpt>
      <trkpt lat="48.72862" lon="7.04245">
        <ele>250.2</ele>
        <time>2023-11-25T17:15:35Z</time>
      </trkpt>
      <trkpt lat="48.72869" lon="7.04264">
        <ele>250.3</ele>
        <time>2023-11-25T17:15:38Z</time>
      </trkpt>
      <trkpt lat="48.72871" lon="7.04279">
        <ele>250.3</ele>
        <time>2023-11-25T17:15:40Z</time>
      </trkpt>
      <trkpt lat="48.72872" lon="7.04291">
        <ele>250.3</ele>
        <time>2023-11-25T17:15:42Z</time>
      </trkpt>
      <trkpt lat="48.72873" lon="7.04302">
        <ele>250.3</ele>
        <time>2023-11-25T17:15:44Z</time>
      </trkpt>
      <trkpt lat="48.72882" lon="7.04327">
        <ele>250.2</ele>
        <time>2023-11-25T17:15:52Z</time>
      </trkpt>
      <trkpt lat="48.72897" lon="7.04349">
        <ele>250</ele>
        <time>2023-11-25T17:16:00Z</time>
      </trkpt>
      <trkpt lat="48.72912" lon="7.04365">
        <ele>249.9</ele>
        <time>2023-11-25T17:16:07Z</time>
      </trkpt>
      <trkpt lat="48.72929" lon="7.04378">
        <ele>249.8</ele>
        <time>2023-11-25T17:16:15Z</time>
      </trkpt>
      <trkpt lat="48.72947" lon="7.04388">
        <ele>249.7</ele>
        <time>2023-11-25T17:16:21Z</time>
      </trkpt>
      <trkpt lat="48.72964" lon="7.04401">
        <ele>249.6</ele>
        <time>2023-11-25T17:16:27Z</time>
      </trkpt>
      <trkpt lat="48.72977" lon="7.04421">
        <ele>249.4</ele>
        <time>2023-11-25T17:16:33Z</time>
      </trkpt>
      <trkpt lat="48.72984" lon="7.04448">
        <ele>249.1</ele>
        <time>2023-11-25T17:16:39Z</time>
      </trkpt>
      <trkpt lat="48.72991" lon="7.04475">
        <ele>248.8</ele>
        <time>2023-11-25T17:16:45Z</time>
      </trkpt>
      <trkpt lat="48.73004" lon="7.04499">
        <ele>248.5</ele>
        <time>2023-11-25T17:16:51Z</time>
      </trkpt>
      <trkpt lat="48.73022" lon="7.04513">
        <ele>248.3</ele>
        <time>2023-11-25T17:16:57Z</time>
      </trkpt>
      <trkpt lat="48.73039" lon="7.04527">
        <ele>248.2</ele>
        <time>2023-11-25T17:17:04Z</time>
      </trkpt>
      <trkpt lat="48.73054" lon="7.04544">
        <ele>248.3</ele>
        <time>2023-11-25T17:17:10Z</time>
      </trkpt>
      <trkpt lat="48.73068" lon="7.04563">
        <ele>248.2</ele>
        <time>2023-11-25T17:17:16Z</time>
      </trkpt>
      <trkpt lat="48.73078" lon="7.0459">
        <ele>248.2</ele>
        <time>2023-11-25T17:17:23Z</time>
      </trkpt>
      <trkpt lat="48.73086" lon="7.04614">
        <ele>248.2</ele>
        <time>2023-11-25T17:17:29Z</time>
      </trkpt>
      <trkpt lat="48.73094" lon="7.04638">
        <ele>248.2</ele>
        <time>2023-11-25T17:17:35Z</time>
      </trkpt>
      <trkpt lat="48.73103" lon="7.04663">
        <ele>248.2</ele>
        <time>2023-11-25T17:17:41Z</time>
      </trkpt>
      <trkpt lat="48.73109" lon="7.04692">
        <ele>248</ele>
        <time>2023-11-25T17:17:48Z</time>
      </trkpt>
      <trkpt lat="48.73118" lon="7.04721">
        <ele>247.8</ele>
        <time>2023-11-25T17:17:55Z</time>
      </trkpt>
      <trkpt lat="48.73129" lon="7.04746">
        <ele>247.7</ele>
        <time>2023-11-25T17:18:02Z</time>
      </trkpt>
      <trkpt lat="48.7314" lon="7.04767">
        <ele>247.5</ele>
        <time>2023-11-25T17:18:08Z</time>
      </trkpt>
      <trkpt lat="48.73154" lon="7.0479">
        <ele>247.4</ele>
        <time>2023-11-25T17:18:15Z</time>
      </trkpt>
      <trkpt lat="48.73165" lon="7.04813">
        <ele>247.5</ele>
        <time>2023-11-25T17:18:22Z</time>
      </trkpt>
      <trkpt lat="48.73179" lon="7.04835">
        <ele>247.6</ele>
        <time>2023-11-25T17:18:29Z</time>
      </trkpt>
      <trkpt lat="48.73194" lon="7.04852">
        <ele>247.6</ele>
        <time>2023-11-25T17:18:35Z</time>
      </trkpt>
      <trkpt lat="48.73213" lon="7.04863">
        <ele>247.8</ele>
        <time>2023-11-25T17:18:41Z</time>
      </trkpt>
      <trkpt lat="48.73231" lon="7.04867">
        <ele>247.9</ele>
        <time>2023-11-25T17:18:48Z</time>
      </trkpt>
      <trkpt lat="48.73251" lon="7.04863">
        <ele>248</ele>
        <time>2023-11-25T17:18:55Z</time>
      </trkpt>
      <trkpt lat="48.73268" lon="7.04876">
        <ele>248</ele>
        <time>2023-11-25T17:19:02Z</time>
      </trkpt>
      <trkpt lat="48.73284" lon="7.04893">
        <ele>248</ele>
        <time>2023-11-25T17:19:08Z</time>
      </trkpt>
      <trkpt lat="48.73299" lon="7.04909">
        <ele>248</ele>
        <time>2023-11-25T17:19:14Z</time>
      </trkpt>
      <trkpt lat="48.73315" lon="7.04926">
        <ele>247.9</ele>
        <time>2023-11-25T17:19:21Z</time>
      </trkpt>
      <trkpt lat="48.73333" lon="7.04943">
        <ele>247.8</ele>
        <time>2023-11-25T17:19:28Z</time>
      </trkpt>
      <trkpt lat="48.7335" lon="7.0496">
        <ele>247.8</ele>
        <time>2023-11-25T17:19:35Z</time>
      </trkpt>
      <trkpt lat="48.73365" lon="7.04978">
        <ele>247.8</ele>
        <time>2023-11-25T17:19:42Z</time>
      </trkpt>
      <trkpt lat="48.73381" lon="7.04995">
        <ele>247.8</ele>
        <time>2023-11-25T17:19:49Z</time>
      </trkpt>
      <trkpt lat="48.73397" lon="7.05012">
        <ele>248</ele>
        <time>2023-11-25T17:19:56Z</time>
      </trkpt>
      <trkpt lat="48.73411" lon="7.05035">
        <ele>248</ele>
        <time>2023-11-25T17:20:04Z</time>
      </trkpt>
      <trkpt lat="48.73412" lon="7.05066">
        <ele>248.1</ele>
        <time>2023-11-25T17:20:11Z</time>
      </trkpt>
      <trkpt lat="48.73421" lon="7.05092">
        <ele>248.2</ele>
        <time>2023-11-25T17:20:19Z</time>
      </trkpt>
      <trkpt lat="48.73433" lon="7.05111">
        <ele>248.3</ele>
        <time>2023-11-25T17:20:27Z</time>
      </trkpt>
      <trkpt lat="48.73452" lon="7.05122">
        <ele>248.3</ele>
        <time>2023-11-25T17:20:35Z</time>
      </trkpt>
      <trkpt lat="48.73463" lon="7.05132">
        <ele>248.2</ele>
        <time>2023-11-25T17:20:40Z</time>
      </trkpt>
      <trkpt lat="48.73462" lon="7.05159">
        <ele>248.3</ele>
        <time>2023-11-25T17:20:47Z</time>
      </trkpt>
      <trkpt lat="48.73462" lon="7.05187">
        <ele>249.3</ele>
        <time>2023-11-25T17:20:55Z</time>
      </trkpt>
      <trkpt lat="48.73466" lon="7.0519">
        <ele>249.5</ele>
        <time>2023-11-25T17:20:57Z</time>
      </trkpt>
      <trkpt lat="48.73485" lon="7.05197">
        <ele>250.5</ele>
        <time>2023-11-25T17:21:03Z</time>
      </trkpt>
      <trkpt lat="48.7349" lon="7.05223">
        <ele>250</ele>
        <time>2023-11-25T17:21:09Z</time>
      </trkpt>
      <trkpt lat="48.73482" lon="7.05251">
        <ele>249.8</ele>
        <time>2023-11-25T17:21:16Z</time>
      </trkpt>
      <trkpt lat="48.73464" lon="7.05258">
        <ele>249.8</ele>
        <time>2023-11-25T17:21:24Z</time>
      </trkpt>
      <trkpt lat="48.73445" lon="7.05254">
        <ele>249.7</ele>
        <time>2023-11-25T17:21:30Z</time>
      </trkpt>
      <trkpt lat="48.73427" lon="7.05243">
        <ele>249.7</ele>
        <time>2023-11-25T17:21:37Z</time>
      </trkpt>
      <trkpt lat="48.73408" lon="7.05243">
        <ele>249.6</ele>
        <time>2023-11-25T17:21:44Z</time>
      </trkpt>
      <trkpt lat="48.73394" lon="7.05243">
        <ele>249.6</ele>
        <time>2023-11-25T17:21:49Z</time>
      </trkpt>
      <trkpt lat="48.73383" lon="7.05267">
        <ele>249.9</ele>
        <time>2023-11-25T17:21:56Z</time>
      </trkpt>
      <trkpt lat="48.73364" lon="7.05274">
        <ele>250.1</ele>
        <time>2023-11-25T17:22:03Z</time>
      </trkpt>
      <trkpt lat="48.73348" lon="7.05282">
        <ele>250.3</ele>
        <time>2023-11-25T17:22:10Z</time>
      </trkpt>
      <trkpt lat="48.73343" lon="7.05307">
        <ele>252.1</ele>
        <time>2023-11-25T17:22:16Z</time>
      </trkpt>
      <trkpt lat="48.7334" lon="7.05334">
        <ele>253.2</ele>
        <time>2023-11-25T17:22:22Z</time>
      </trkpt>
      <trkpt lat="48.73338" lon="7.05365">
        <ele>254.5</ele>
        <time>2023-11-25T17:22:29Z</time>
      </trkpt>
      <trkpt lat="48.73337" lon="7.05396">
        <ele>255.9</ele>
        <time>2023-11-25T17:22:36Z</time>
      </trkpt>
      <trkpt lat="48.73335" lon="7.05426">
        <ele>256.4</ele>
        <time>2023-11-25T17:22:43Z</time>
      </trkpt>
      <trkpt lat="48.73336" lon="7.05456">
        <ele>257</ele>
        <time>2023-11-25T17:22:50Z</time>
      </trkpt>
      <trkpt lat="48.73334" lon="7.05483">
        <ele>257.5</ele>
        <time>2023-11-25T17:22:57Z</time>
      </trkpt>
      <trkpt lat="48.7333" lon="7.05512">
        <ele>258</ele>
        <time>2023-11-25T17:23:04Z</time>
      </trkpt>
      <trkpt lat="48.73328" lon="7.05541">
        <ele>258.8</ele>
        <time>2023-11-25T17:23:11Z</time>
      </trkpt>
      <trkpt lat="48.73323" lon="7.05572">
        <ele>259.6</ele>
        <time>2023-11-25T17:23:18Z</time>
      </trkpt>
      <trkpt lat="48.73321" lon="7.056">
        <ele>260.2</ele>
        <time>2023-11-25T17:23:25Z</time>
      </trkpt>
      <trkpt lat="48.73322" lon="7.05629">
        <ele>261</ele>
        <time>2023-11-25T17:23:32Z</time>
      </trkpt>
      <trkpt lat="48.73324" lon="7.05658">
        <ele>262</ele>
        <time>2023-11-25T17:23:40Z</time>
      </trkpt>
      <trkpt lat="48.73336" lon="7.05681">
        <ele>263.1</ele>
        <time>2023-11-25T17:23:48Z</time>
      </trkpt>
      <trkpt lat="48.73351" lon="7.05663">
        <ele>262.3</ele>
        <time>2023-11-25T17:23:55Z</time>
      </trkpt>
      <trkpt lat="48.73365" lon="7.05641">
        <ele>261.5</ele>
        <time>2023-11-25T17:24:01Z</time>
      </trkpt>
      <trkpt lat="48.73377" lon="7.0562">
        <ele>260.5</ele>
        <time>2023-11-25T17:24:07Z</time>
      </trkpt>
      <trkpt lat="48.73384" lon="7.05594">
        <ele>259.4</ele>
        <time>2023-11-25T17:24:14Z</time>
      </trkpt>
      <trkpt lat="48.73391" lon="7.05566">
        <ele>258.2</ele>
        <time>2023-11-25T17:24:21Z</time>
      </trkpt>
      <trkpt lat="48.73399" lon="7.05539">
        <ele>257.1</ele>
        <time>2023-11-25T17:24:26Z</time>
      </trkpt>
      <trkpt lat="48.73413" lon="7.0552">
        <ele>256</ele>
        <time>2023-11-25T17:24:31Z</time>
      </trkpt>
      <trkpt lat="48.7343" lon="7.0551">
        <ele>255.4</ele>
        <time>2023-11-25T17:24:37Z</time>
      </trkpt>
      <trkpt lat="48.73443" lon="7.05514">
        <ele>255.4</ele>
        <time>2023-11-25T17:24:42Z</time>
      </trkpt>
      <trkpt lat="48.73448" lon="7.05544">
        <ele>256.5</ele>
        <time>2023-11-25T17:24:49Z</time>
      </trkpt>
      <trkpt lat="48.73455" lon="7.0557">
        <ele>257.4</ele>
        <time>2023-11-25T17:24:55Z</time>
      </trkpt>
      <trkpt lat="48.73456" lon="7.056">
        <ele>258.5</ele>
        <time>2023-11-25T17:25:02Z</time>
      </trkpt>
      <trkpt lat="48.73453" lon="7.05604">
        <ele>258.6</ele>
        <time>2023-11-25T17:25:03Z</time>
      </trkpt>
    </trkseg>
  </trk>
</gpx>